sensor_id;sensor_type;location;lat;lon;timestamp;P1;P2;P0
77777;PMS5003;66966;-34.746;138.604;2023-06-05T00:00:45;13;13;
77777;PMS5003;66966;-34.746;138.604;2023-06-05T00:03:10;13;13;
77777;PMS5003;66966;-34.746;138.604;2023-06-05T00:05:35;19;17;
77777;PMS5003;66966;-34.746;138.604;2023-06-05T00:08:01;11;11;
77777;PMS5003;66966;-34.746;138.604;2023-06-05T00:10:27;11;11;
77777;PMS5003;66966;-34.746;138.604;2023-06-05T00:12:52;15;15;
77777;PMS5003;66966;-34.746;138.604;2023-06-05T00:15:17;13;13;
77777;PMS5003;66966;-34.746;138.604;2023-06-05T00:17:43;14;14;
77777;PMS5003;66966;-34.746;138.604;2023-06-05T00:20:09;12;12;
77777;PMS5003;66966;-34.746;138.604;2023-06-05T00:22:34;15;14;
77777;PMS5003;66966;-34.746;138.604;2023-06-05T00:25:00;16;13;
77777;PMS5003;66966;-34.746;138.604;2023-06-05T00:27:25;10;10;
77777;PMS5003;66966;-34.746;138.604;2023-06-05T00:29:51;12;12;
77777;PMS5003;66966;-34.746;138.604;2023-06-05T00:32:16;12;12;
77777;PMS5003;66966;-34.746;138.604;2023-06-05T00:34:41;13;12;
77777;PMS5003;66966;-34.746;138.604;2023-06-05T00:37:07;13;13;
77777;PMS5003;66966;-34.746;138.604;2023-06-05T00:39:32;15;13;
77777;PMS5003;66966;-34.746;138.604;2023-06-05T00:41:58;9;9;
77777;PMS5003;66966;-34.746;138.604;2023-06-05T00:44:24;11;11;
77777;PMS5003;66966;-34.746;138.604;2023-06-05T00:46:48;13;13;
77777;PMS5003;66966;-34.746;138.604;2023-06-05T00:49:14;9;9;
77777;PMS5003;66966;-34.746;138.604;2023-06-05T00:51:39;9;9;
77777;PMS5003;66966;-34.746;138.604;2023-06-05T00:54:05;11;11;
77777;PMS5003;66966;-34.746;138.604;2023-06-05T00:56:31;10;10;
77777;PMS5003;66966;-34.746;138.604;2023-06-05T00:58:56;12;12;
77777;PMS5003;66966;-34.746;138.604;2023-06-05T01:01:21;10;10;
77777;PMS5003;66966;-34.746;138.604;2023-06-05T01:03:47;9;8;
77777;PMS5003;66966;-34.746;138.604;2023-06-05T01:06:12;9;8;
77777;PMS5003;66966;-34.746;138.604;2023-06-05T01:08:38;8;8;
77777;PMS5003;66966;-34.746;138.604;2023-06-05T01:11:04;8;8;
77777;PMS5003;66966;-34.746;138.604;2023-06-05T01:13:30;9;9;
77777;PMS5003;66966;-34.746;138.604;2023-06-05T01:15:54;12;10;
77777;PMS5003;66966;-34.746;138.604;2023-06-05T01:18:20;9;8;
77777;PMS5003;66966;-34.746;138.604;2023-06-05T01:20:45;7;7;
77777;PMS5003;66966;-34.746;138.604;2023-06-05T01:23:10;7;7;
77777;PMS5003;66966;-34.746;138.604;2023-06-05T01:25:36;9;9;
77777;PMS5003;66966;-34.746;138.604;2023-06-05T01:28:05;7;7;
77777;PMS5003;66966;-34.746;138.604;2023-06-05T01:30:29;9;9;
77777;PMS5003;66966;-34.746;138.604;2023-06-05T01:32:53;9;8;
77777;PMS5003;66966;-34.746;138.604;2023-06-05T01:35:17;9;9;
77777;PMS5003;66966;-34.746;138.604;2023-06-05T01:37:46;7;7;
77777;PMS5003;66966;-34.746;138.604;2023-06-05T01:40:08;8;7;
77777;PMS5003;66966;-34.746;138.604;2023-06-05T01:42:35;7;7;
77777;PMS5003;66966;-34.746;138.604;2023-06-05T01:44:59;8;8;
77777;PMS5003;66966;-34.746;138.604;2023-06-05T01:47:24;4;4;
77777;PMS5003;66966;-34.746;138.604;2023-06-05T01:49:51;7;7;
77777;PMS5003;66966;-34.746;138.604;2023-06-05T01:54:41;8;8;
77777;PMS5003;66966;-34.746;138.604;2023-06-05T01:57:06;6;6;
77777;PMS5003;66966;-34.746;138.604;2023-06-05T01:59:33;6;6;
77777;PMS5003;66966;-34.746;138.604;2023-06-05T02:02:00;7;7;
77777;PMS5003;66966;-34.746;138.604;2023-06-05T02:04:24;8;8;
77777;PMS5003;66966;-34.746;138.604;2023-06-05T02:06:48;8;8;
77777;PMS5003;66966;-34.746;138.604;2023-06-05T02:09:13;8;8;
77777;PMS5003;66966;-34.746;138.604;2023-06-05T02:11:42;8;8;
77777;PMS5003;66966;-34.746;138.604;2023-06-05T02:14:04;8;8;
77777;PMS5003;66966;-34.746;138.604;2023-06-05T02:16:30;8;7;
77777;PMS5003;66966;-34.746;138.604;2023-06-05T02:18:56;8;7;
77777;PMS5003;66966;-34.746;138.604;2023-06-05T02:21:23;5;5;
77777;PMS5003;66966;-34.746;138.604;2023-06-05T02:23:47;7;6;
77777;PMS5003;66966;-34.746;138.604;2023-06-05T02:26:13;8;8;
77777;PMS5003;66966;-34.746;138.604;2023-06-05T02:31:02;8;8;
77777;PMS5003;66966;-34.746;138.604;2023-06-05T02:33:28;8;8;
77777;PMS5003;66966;-34.746;138.604;2023-06-05T02:35:56;9;9;
77777;PMS5003;66966;-34.746;138.604;2023-06-05T02:38:18;7;7;
77777;PMS5003;66966;-34.746;138.604;2023-06-05T02:40:44;8;7;
77777;PMS5003;66966;-34.746;138.604;2023-06-05T02:43:11;8;7;
77777;PMS5003;66966;-34.746;138.604;2023-06-05T02:45:37;9;9;
77777;PMS5003;66966;-34.746;138.604;2023-06-05T02:48:00;8;8;
77777;PMS5003;66966;-34.746;138.604;2023-06-05T02:50:26;8;8;
77777;PMS5003;66966;-34.746;138.604;2023-06-05T02:52:52;8;8;
77777;PMS5003;66966;-34.746;138.604;2023-06-05T02:55:17;8;8;
77777;PMS5003;66966;-34.746;138.604;2023-06-05T02:57:44;9;9;
77777;PMS5003;66966;-34.746;138.604;2023-06-05T03:00:09;9;9;
77777;PMS5003;66966;-34.746;138.604;2023-06-05T03:02:33;8;8;
77777;PMS5003;66966;-34.746;138.604;2023-06-05T03:05:00;7;7;
77777;PMS5003;66966;-34.746;138.604;2023-06-05T03:07:28;7;7;
77777;PMS5003;66966;-34.746;138.604;2023-06-05T03:09:53;8;8;
77777;PMS5003;66966;-34.746;138.604;2023-06-05T03:12:20;9;9;
77777;PMS5003;66966;-34.746;138.604;2023-06-05T03:14:41;10;10;
77777;PMS5003;66966;-34.746;138.604;2023-06-05T03:17:06;7;7;
77777;PMS5003;66966;-34.746;138.604;2023-06-05T03:19:32;9;9;
77777;PMS5003;66966;-34.746;138.604;2023-06-05T03:21:57;8;7;
77777;PMS5003;66966;-34.746;138.604;2023-06-05T03:24:23;8;7;
77777;PMS5003;66966;-34.746;138.604;2023-06-05T03:26:48;7;7;
77777;PMS5003;66966;-34.746;138.604;2023-06-05T03:29:14;8;8;
77777;PMS5003;66966;-34.746;138.604;2023-06-05T03:31:39;8;7;
77777;PMS5003;66966;-34.746;138.604;2023-06-05T03:34:05;7;7;
77777;PMS5003;66966;-34.746;138.604;2023-06-05T03:36:30;9;9;
77777;PMS5003;66966;-34.746;138.604;2023-06-05T03:38:56;7;7;
77777;PMS5003;66966;-34.746;138.604;2023-06-05T03:41:22;8;8;
77777;PMS5003;66966;-34.746;138.604;2023-06-05T03:43:47;6;6;
77777;PMS5003;66966;-34.746;138.604;2023-06-05T03:46:12;9;9;
77777;PMS5003;66966;-34.746;138.604;2023-06-05T03:48:37;6;6;
77777;PMS5003;66966;-34.746;138.604;2023-06-05T03:51:03;7;7;
77777;PMS5003;66966;-34.746;138.604;2023-06-05T03:53:29;7;7;
77777;PMS5003;66966;-34.746;138.604;2023-06-05T03:55:54;6;6;
77777;PMS5003;66966;-34.746;138.604;2023-06-05T03:58:19;7;6;
77777;PMS5003;66966;-34.746;138.604;2023-06-05T04:00:45;7;7;
77777;PMS5003;66966;-34.746;138.604;2023-06-05T04:03:11;7;7;
77777;PMS5003;66966;-34.746;138.604;2023-06-05T04:05:36;7;7;
77777;PMS5003;66966;-34.746;138.604;2023-06-05T04:08:01;7;7;
77777;PMS5003;66966;-34.746;138.604;2023-06-05T04:10:28;6;6;
77777;PMS5003;66966;-34.746;138.604;2023-06-05T04:12:52;6;6;
77777;PMS5003;66966;-34.746;138.604;2023-06-05T04:15:18;6;6;
77777;PMS5003;66966;-34.746;138.604;2023-06-05T04:17:43;4;4;
77777;PMS5003;66966;-34.746;138.604;2023-06-05T04:20:09;7;6;
77777;PMS5003;66966;-34.746;138.604;2023-06-05T04:22:35;6;6;
77777;PMS5003;66966;-34.746;138.604;2023-06-05T04:25:00;6;6;
77777;PMS5003;66966;-34.746;138.604;2023-06-05T04:27:25;5;5;
77777;PMS5003;66966;-34.746;138.604;2023-06-05T04:29:51;7;7;
77777;PMS5003;66966;-34.746;138.604;2023-06-05T04:32:16;5;4;
77777;PMS5003;66966;-34.746;138.604;2023-06-05T04:34:42;7;7;
77777;PMS5003;66966;-34.746;138.604;2023-06-05T04:37:07;5;5;
77777;PMS5003;66966;-34.746;138.604;2023-06-05T04:39:33;7;7;
77777;PMS5003;66966;-34.746;138.604;2023-06-05T04:41:58;6;5;
77777;PMS5003;66966;-34.746;138.604;2023-06-05T04:44:24;7;5;
77777;PMS5003;66966;-34.746;138.604;2023-06-05T04:46:49;6;6;
77777;PMS5003;66966;-34.746;138.604;2023-06-05T04:49:14;5;5;
77777;PMS5003;66966;-34.746;138.604;2023-06-05T04:51:40;5;4;
77777;PMS5003;66966;-34.746;138.604;2023-06-05T04:54:05;5;5;
77777;PMS5003;66966;-34.746;138.604;2023-06-05T04:56:31;4;4;
77777;PMS5003;66966;-34.746;138.604;2023-06-05T04:58:57;4;4;
77777;PMS5003;66966;-34.746;138.604;2023-06-05T05:01:22;4;4;
77777;PMS5003;66966;-34.746;138.604;2023-06-05T05:03:47;4;4;
77777;PMS5003;66966;-34.746;138.604;2023-06-05T05:06:14;5;4;
77777;PMS5003;66966;-34.746;138.604;2023-06-05T05:08:38;5;5;
77777;PMS5003;66966;-34.746;138.604;2023-06-05T05:11:03;4;4;
77777;PMS5003;66966;-34.746;138.604;2023-06-05T05:13:29;5;4;
77777;PMS5003;66966;-34.746;138.604;2023-06-05T05:15:54;4;4;
77777;PMS5003;66966;-34.746;138.604;2023-06-05T05:18:19;4;4;
77777;PMS5003;66966;-34.746;138.604;2023-06-05T05:20:45;4;4;
77777;PMS5003;66966;-34.746;138.604;2023-06-05T05:23:11;3;3;
77777;PMS5003;66966;-34.746;138.604;2023-06-05T05:25:36;4;4;
77777;PMS5003;66966;-34.746;138.604;2023-06-05T05:28:01;4;4;
77777;PMS5003;66966;-34.746;138.604;2023-06-05T05:30:26;4;4;
77777;PMS5003;66966;-34.746;138.604;2023-06-05T05:32:52;4;4;
77777;PMS5003;66966;-34.746;138.604;2023-06-05T05:35:18;5;4;
77777;PMS5003;66966;-34.746;138.604;2023-06-05T05:37:43;3;3;
77777;PMS5003;66966;-34.746;138.604;2023-06-05T05:40:08;4;4;
77777;PMS5003;66966;-34.746;138.604;2023-06-05T05:42:34;6;5;
77777;PMS5003;66966;-34.746;138.604;2023-06-05T05:44:59;5;5;
77777;PMS5003;66966;-34.746;138.604;2023-06-05T05:47:25;4;4;
77777;PMS5003;66966;-34.746;138.604;2023-06-05T05:49:50;4;4;
77777;PMS5003;66966;-34.746;138.604;2023-06-05T05:52:15;5;4;
77777;PMS5003;66966;-34.746;138.604;2023-06-05T05:54:41;5;4;
77777;PMS5003;66966;-34.746;138.604;2023-06-05T05:57:06;5;4;
77777;PMS5003;66966;-34.746;138.604;2023-06-05T05:59:32;4;4;
77777;PMS5003;66966;-34.746;138.604;2023-06-05T06:01:57;3;3;
77777;PMS5003;66966;-34.746;138.604;2023-06-05T06:04:22;2;2;
77777;PMS5003;66966;-34.746;138.604;2023-06-05T06:06:47;4;4;
77777;PMS5003;66966;-34.746;138.604;2023-06-05T06:09:14;2;2;
77777;PMS5003;66966;-34.746;138.604;2023-06-05T06:11:39;3;3;
77777;PMS5003;66966;-34.746;138.604;2023-06-05T06:14:04;3;3;
77777;PMS5003;66966;-34.746;138.604;2023-06-05T06:16:29;3;3;
77777;PMS5003;66966;-34.746;138.604;2023-06-05T06:18:55;2;2;
77777;PMS5003;66966;-34.746;138.604;2023-06-05T06:21:20;3;3;
77777;PMS5003;66966;-34.746;138.604;2023-06-05T06:23:46;4;4;
77777;PMS5003;66966;-34.746;138.604;2023-06-05T06:26:11;3;3;
77777;PMS5003;66966;-34.746;138.604;2023-06-05T06:28:36;4;4;
77777;PMS5003;66966;-34.746;138.604;2023-06-05T06:31:02;3;3;
77777;PMS5003;66966;-34.746;138.604;2023-06-05T06:33:27;6;5;
77777;PMS5003;66966;-34.746;138.604;2023-06-05T06:35:53;2;2;
77777;PMS5003;66966;-34.746;138.604;2023-06-05T06:38:18;3;3;
77777;PMS5003;66966;-34.746;138.604;2023-06-05T06:40:43;6;4;
77777;PMS5003;66966;-34.746;138.604;2023-06-05T06:43:09;4;4;
77777;PMS5003;66966;-34.746;138.604;2023-06-05T06:45:34;4;3;
77777;PMS5003;66966;-34.746;138.604;2023-06-05T06:48:00;3;3;
77777;PMS5003;66966;-34.746;138.604;2023-06-05T06:50:25;4;3;
77777;PMS5003;66966;-34.746;138.604;2023-06-05T06:52:51;5;4;
77777;PMS5003;66966;-34.746;138.604;2023-06-05T06:55:16;3;3;
77777;PMS5003;66966;-34.746;138.604;2023-06-05T06:57:41;5;5;
77777;PMS5003;66966;-34.746;138.604;2023-06-05T07:00:08;8;7;
77777;PMS5003;66966;-34.746;138.604;2023-06-05T07:02:32;7;6;
77777;PMS5003;66966;-34.746;138.604;2023-06-05T07:04:58;5;5;
77777;PMS5003;66966;-34.746;138.604;2023-06-05T07:07:23;9;8;
77777;PMS5003;66966;-34.746;138.604;2023-06-05T07:09:49;8;8;
77777;PMS5003;66966;-34.746;138.604;2023-06-05T07:12:15;8;7;
77777;PMS5003;66966;-34.746;138.604;2023-06-05T07:14:40;7;7;
77777;PMS5003;66966;-34.746;138.604;2023-06-05T07:17:05;8;8;
77777;PMS5003;66966;-34.746;138.604;2023-06-05T07:19:31;6;6;
77777;PMS5003;66966;-34.746;138.604;2023-06-05T07:21:56;6;6;
77777;PMS5003;66966;-34.746;138.604;2023-06-05T07:24:22;5;5;
77777;PMS5003;66966;-34.746;138.604;2023-06-05T07:26:47;6;6;
77777;PMS5003;66966;-34.746;138.604;2023-06-05T07:29:12;5;5;
77777;PMS5003;66966;-34.746;138.604;2023-06-05T07:31:38;7;7;
77777;PMS5003;66966;-34.746;138.604;2023-06-05T07:34:03;5;5;
77777;PMS5003;66966;-34.746;138.604;2023-06-05T07:36:29;8;7;
77777;PMS5003;66966;-34.746;138.604;2023-06-05T07:38:54;6;6;
77777;PMS5003;66966;-34.746;138.604;2023-06-05T07:41:20;8;8;
77777;PMS5003;66966;-34.746;138.604;2023-06-05T07:43:45;5;5;
77777;PMS5003;66966;-34.746;138.604;2023-06-05T07:46:11;5;5;
77777;PMS5003;66966;-34.746;138.604;2023-06-05T07:48:36;7;7;
77777;PMS5003;66966;-34.746;138.604;2023-06-05T07:51:02;6;6;
77777;PMS5003;66966;-34.746;138.604;2023-06-05T07:53:27;8;8;
77777;PMS5003;66966;-34.746;138.604;2023-06-05T07:55:53;9;9;
77777;PMS5003;66966;-34.746;138.604;2023-06-05T07:58:18;10;9;
77777;PMS5003;66966;-34.746;138.604;2023-06-05T08:00:43;10;10;
77777;PMS5003;66966;-34.746;138.604;2023-06-05T08:03:09;11;11;
77777;PMS5003;66966;-34.746;138.604;2023-06-05T08:05:34;10;10;
77777;PMS5003;66966;-34.746;138.604;2023-06-05T08:08:00;14;13;
77777;PMS5003;66966;-34.746;138.604;2023-06-05T08:10:26;13;12;
77777;PMS5003;66966;-34.746;138.604;2023-06-05T08:12:51;11;11;
77777;PMS5003;66966;-34.746;138.604;2023-06-05T08:15:17;10;10;
77777;PMS5003;66966;-34.746;138.604;2023-06-05T08:17:42;11;10;
77777;PMS5003;66966;-34.746;138.604;2023-06-05T08:20:08;10;10;
77777;PMS5003;66966;-34.746;138.604;2023-06-05T08:22:33;12;11;
77777;PMS5003;66966;-34.746;138.604;2023-06-05T08:24:58;13;12;
77777;PMS5003;66966;-34.746;138.604;2023-06-05T08:27:24;15;15;
77777;PMS5003;66966;-34.746;138.604;2023-06-05T08:29:49;13;13;
77777;PMS5003;66966;-34.746;138.604;2023-06-05T08:32:15;13;10;
77777;PMS5003;66966;-34.746;138.604;2023-06-05T08:34:40;10;9;
77777;PMS5003;66966;-34.746;138.604;2023-06-05T08:37:06;8;7;
77777;PMS5003;66966;-34.746;138.604;2023-06-05T08:39:31;8;8;
77777;PMS5003;66966;-34.746;138.604;2023-06-05T08:41:57;10;9;
77777;PMS5003;66966;-34.746;138.604;2023-06-05T08:44:22;7;7;
77777;PMS5003;66966;-34.746;138.604;2023-06-05T08:46:48;9;7;
77777;PMS5003;66966;-34.746;138.604;2023-06-05T08:49:13;9;8;
77777;PMS5003;66966;-34.746;138.604;2023-06-05T08:51:39;8;8;
77777;PMS5003;66966;-34.746;138.604;2023-06-05T08:54:04;9;9;
77777;PMS5003;66966;-34.746;138.604;2023-06-05T08:56:30;8;8;
77777;PMS5003;66966;-34.746;138.604;2023-06-05T08:58:55;10;10;
77777;PMS5003;66966;-34.746;138.604;2023-06-05T09:01:21;11;11;
77777;PMS5003;66966;-34.746;138.604;2023-06-05T09:03:46;9;9;
77777;PMS5003;66966;-34.746;138.604;2023-06-05T09:06:12;9;9;
77777;PMS5003;66966;-34.746;138.604;2023-06-05T09:08:37;11;11;
77777;PMS5003;66966;-34.746;138.604;2023-06-05T09:13:31;11;10;
77777;PMS5003;66966;-34.746;138.604;2023-06-05T09:15:54;10;10;
77777;PMS5003;66966;-34.746;138.604;2023-06-05T09:18:19;11;10;
77777;PMS5003;66966;-34.746;138.604;2023-06-05T09:20:45;12;12;
77777;PMS5003;66966;-34.746;138.604;2023-06-05T09:28:06;9;9;
77777;PMS5003;66966;-34.746;138.604;2023-06-05T09:30:27;12;11;
77777;PMS5003;66966;-34.746;138.604;2023-06-05T09:32:52;10;10;
77777;PMS5003;66966;-34.746;138.604;2023-06-05T09:35:18;8;8;
77777;PMS5003;66966;-34.746;138.604;2023-06-05T09:37:44;9;9;
77777;PMS5003;66966;-34.746;138.604;2023-06-05T09:40:09;9;9;
77777;PMS5003;66966;-34.746;138.604;2023-06-05T09:42:34;8;8;
77777;PMS5003;66966;-34.746;138.604;2023-06-05T09:45:00;9;9;
77777;PMS5003;66966;-34.746;138.604;2023-06-05T09:47:25;8;8;
77777;PMS5003;66966;-34.746;138.604;2023-06-05T09:49:51;8;7;
77777;PMS5003;66966;-34.746;138.604;2023-06-05T09:52:16;10;9;
77777;PMS5003;66966;-34.746;138.604;2023-06-05T09:54:42;9;9;
77777;PMS5003;66966;-34.746;138.604;2023-06-05T09:57:07;10;9;
77777;PMS5003;66966;-34.746;138.604;2023-06-05T09:59:33;10;9;
77777;PMS5003;66966;-34.746;138.604;2023-06-05T10:02:00;12;12;
77777;PMS5003;66966;-34.746;138.604;2023-06-05T10:04:24;12;11;
77777;PMS5003;66966;-34.746;138.604;2023-06-05T10:06:49;9;9;
77777;PMS5003;66966;-34.746;138.604;2023-06-05T10:09:14;11;9;
77777;PMS5003;66966;-34.746;138.604;2023-06-05T10:11:40;8;8;
77777;PMS5003;66966;-34.746;138.604;2023-06-05T10:14:06;10;9;
77777;PMS5003;66966;-34.746;138.604;2023-06-05T10:16:31;8;8;
77777;PMS5003;66966;-34.746;138.604;2023-06-05T10:18:57;7;6;
77777;PMS5003;66966;-34.746;138.604;2023-06-05T10:21:22;6;6;
77777;PMS5003;66966;-34.746;138.604;2023-06-05T10:23:48;7;7;
77777;PMS5003;66966;-34.746;138.604;2023-06-05T10:26:15;10;9;
77777;PMS5003;66966;-34.746;138.604;2023-06-05T10:28:40;8;6;
77777;PMS5003;66966;-34.746;138.604;2023-06-05T10:33:34;7;7;
77777;PMS5003;66966;-34.746;138.604;2023-06-05T10:35:58;6;6;
77777;PMS5003;66966;-34.746;138.604;2023-06-05T10:38:21;7;7;
77777;PMS5003;66966;-34.746;138.604;2023-06-05T10:40:46;5;5;
77777;PMS5003;66966;-34.746;138.604;2023-06-05T10:45:37;7;7;
77777;PMS5003;66966;-34.746;138.604;2023-06-05T10:48:03;6;5;
77777;PMS5003;66966;-34.746;138.604;2023-06-05T10:50:28;4;4;
77777;PMS5003;66966;-34.746;138.604;2023-06-05T10:52:55;2;2;
77777;PMS5003;66966;-34.746;138.604;2023-06-05T10:55:20;6;6;
77777;PMS5003;66966;-34.746;138.604;2023-06-05T11:00:10;5;5;
77777;PMS5003;66966;-34.746;138.604;2023-06-05T11:02:39;6;6;
77777;PMS5003;66966;-34.746;138.604;2023-06-05T11:05:07;5;4;
77777;PMS5003;66966;-34.746;138.604;2023-06-05T11:07:27;5;5;
77777;PMS5003;66966;-34.746;138.604;2023-06-05T11:12:18;4;4;
77777;PMS5003;66966;-34.746;138.604;2023-06-05T11:14:44;3;3;
77777;PMS5003;66966;-34.746;138.604;2023-06-05T11:19:35;4;4;
77777;PMS5003;66966;-34.746;138.604;2023-06-05T11:22:03;5;5;
77777;PMS5003;66966;-34.746;138.604;2023-06-05T11:24:25;4;4;
77777;PMS5003;66966;-34.746;138.604;2023-06-05T11:26:51;5;4;
77777;PMS5003;66966;-34.746;138.604;2023-06-05T11:29:17;2;2;
77777;PMS5003;66966;-34.746;138.604;2023-06-05T11:31:43;3;3;
77777;PMS5003;66966;-34.746;138.604;2023-06-05T11:34:11;7;7;
77777;PMS5003;66966;-34.746;138.604;2023-06-05T11:36:33;6;5;
77777;PMS5003;66966;-34.746;138.604;2023-06-05T11:38:58;3;3;
77777;PMS5003;66966;-34.746;138.604;2023-06-05T11:41:24;7;6;
77777;PMS5003;66966;-34.746;138.604;2023-06-05T11:43:50;7;6;
77777;PMS5003;66966;-34.746;138.604;2023-06-05T11:46:15;4;4;
77777;PMS5003;66966;-34.746;138.604;2023-06-05T11:48:44;6;6;
77777;PMS5003;66966;-34.746;138.604;2023-06-05T11:51:07;7;5;
77777;PMS5003;66966;-34.746;138.604;2023-06-05T11:53:32;9;7;
77777;PMS5003;66966;-34.746;138.604;2023-06-05T11:55:58;6;6;
77777;PMS5003;66966;-34.746;138.604;2023-06-05T11:58:23;7;7;
77777;PMS5003;66966;-34.746;138.604;2023-06-05T12:00:48;8;8;
77777;PMS5003;66966;-34.746;138.604;2023-06-05T12:03:17;8;8;
77777;PMS5003;66966;-34.746;138.604;2023-06-05T12:05:39;7;7;
77777;PMS5003;66966;-34.746;138.604;2023-06-05T12:10:33;7;7;
77777;PMS5003;66966;-34.746;138.604;2023-06-05T12:12:56;6;6;
77777;PMS5003;66966;-34.746;138.604;2023-06-05T12:15:21;6;6;
77777;PMS5003;66966;-34.746;138.604;2023-06-05T12:17:49;5;5;
77777;PMS5003;66966;-34.746;138.604;2023-06-05T12:20:12;6;5;
77777;PMS5003;66966;-34.746;138.604;2023-06-05T12:22:37;5;5;
77777;PMS5003;66966;-34.746;138.604;2023-06-05T12:27:30;7;7;
77777;PMS5003;66966;-34.746;138.604;2023-06-05T12:29:54;6;6;
77777;PMS5003;66966;-34.746;138.604;2023-06-05T12:32:21;6;5;
77777;PMS5003;66966;-34.746;138.604;2023-06-05T12:34:45;6;6;
77777;PMS5003;66966;-34.746;138.604;2023-06-05T12:37:11;5;5;
77777;PMS5003;66966;-34.746;138.604;2023-06-05T12:39:36;6;6;
77777;PMS5003;66966;-34.746;138.604;2023-06-05T12:42:02;5;5;
77777;PMS5003;66966;-34.746;138.604;2023-06-05T12:44:27;6;6;
77777;PMS5003;66966;-34.746;138.604;2023-06-05T12:46:53;4;4;
77777;PMS5003;66966;-34.746;138.604;2023-06-05T12:49:18;7;6;
77777;PMS5003;66966;-34.746;138.604;2023-06-05T12:51:44;7;7;
77777;PMS5003;66966;-34.746;138.604;2023-06-05T12:54:09;8;8;
77777;PMS5003;66966;-34.746;138.604;2023-06-05T12:56:35;7;7;
77777;PMS5003;66966;-34.746;138.604;2023-06-05T12:59:00;8;6;
77777;PMS5003;66966;-34.746;138.604;2023-06-05T13:01:26;8;7;
77777;PMS5003;66966;-34.746;138.604;2023-06-05T13:03:52;6;6;
77777;PMS5003;66966;-34.746;138.604;2023-06-05T13:06:17;5;5;
77777;PMS5003;66966;-34.746;138.604;2023-06-05T13:08:43;7;7;
77777;PMS5003;66966;-34.746;138.604;2023-06-05T13:11:08;8;7;
77777;PMS5003;66966;-34.746;138.604;2023-06-05T13:13:35;7;7;
77777;PMS5003;66966;-34.746;138.604;2023-06-05T13:16:00;6;6;
77777;PMS5003;66966;-34.746;138.604;2023-06-05T13:18:25;6;6;
77777;PMS5003;66966;-34.746;138.604;2023-06-05T13:20:51;5;5;
77777;PMS5003;66966;-34.746;138.604;2023-06-05T13:23:16;7;7;
77777;PMS5003;66966;-34.746;138.604;2023-06-05T13:25:42;6;5;
77777;PMS5003;66966;-34.746;138.604;2023-06-05T13:28:07;6;6;
77777;PMS5003;66966;-34.746;138.604;2023-06-05T13:30:33;5;5;
77777;PMS5003;66966;-34.746;138.604;2023-06-05T13:32:59;6;6;
77777;PMS5003;66966;-34.746;138.604;2023-06-05T13:35:24;6;6;
77777;PMS5003;66966;-34.746;138.604;2023-06-05T13:37:50;3;3;
77777;PMS5003;66966;-34.746;138.604;2023-06-05T13:40:15;5;5;
77777;PMS5003;66966;-34.746;138.604;2023-06-05T13:42:41;6;6;
77777;PMS5003;66966;-34.746;138.604;2023-06-05T13:45:07;6;6;
77777;PMS5003;66966;-34.746;138.604;2023-06-05T13:47:32;5;5;
77777;PMS5003;66966;-34.746;138.604;2023-06-05T13:49:57;4;4;
77777;PMS5003;66966;-34.746;138.604;2023-06-05T13:52:23;6;6;
77777;PMS5003;66966;-34.746;138.604;2023-06-05T13:54:49;4;4;
77777;PMS5003;66966;-34.746;138.604;2023-06-05T13:57:14;4;4;
77777;PMS5003;66966;-34.746;138.604;2023-06-05T13:59:39;5;4;
77777;PMS5003;66966;-34.746;138.604;2023-06-05T14:02:05;5;5;
77777;PMS5003;66966;-34.746;138.604;2023-06-05T14:04:31;7;7;
77777;PMS5003;66966;-34.746;138.604;2023-06-05T14:06:56;6;6;
77777;PMS5003;66966;-34.746;138.604;2023-06-05T14:09:22;5;5;
77777;PMS5003;66966;-34.746;138.604;2023-06-05T14:11:47;7;6;
77777;PMS5003;66966;-34.746;138.604;2023-06-05T14:14:13;5;5;
77777;PMS5003;66966;-34.746;138.604;2023-06-05T14:16:39;5;5;
77777;PMS5003;66966;-34.746;138.604;2023-06-05T14:19:04;5;5;
77777;PMS5003;66966;-34.746;138.604;2023-06-05T14:21:30;5;5;
77777;PMS5003;66966;-34.746;138.604;2023-06-05T14:23:55;5;5;
77777;PMS5003;66966;-34.746;138.604;2023-06-05T14:26:21;5;5;
77777;PMS5003;66966;-34.746;138.604;2023-06-05T14:28:46;5;5;
77777;PMS5003;66966;-34.746;138.604;2023-06-05T14:31:12;4;4;
77777;PMS5003;66966;-34.746;138.604;2023-06-05T14:33:38;4;4;
77777;PMS5003;66966;-34.746;138.604;2023-06-05T14:36:03;5;4;
77777;PMS5003;66966;-34.746;138.604;2023-06-05T14:38:29;5;5;
77777;PMS5003;66966;-34.746;138.604;2023-06-05T14:40:54;6;6;
77777;PMS5003;66966;-34.746;138.604;2023-06-05T14:43:20;3;3;
77777;PMS5003;66966;-34.746;138.604;2023-06-05T14:45:46;5;5;
77777;PMS5003;66966;-34.746;138.604;2023-06-05T14:48:11;4;4;
77777;PMS5003;66966;-34.746;138.604;2023-06-05T14:50:37;5;5;
77777;PMS5003;66966;-34.746;138.604;2023-06-05T14:53:02;3;2;
77777;PMS5003;66966;-34.746;138.604;2023-06-05T14:55:28;5;4;
77777;PMS5003;66966;-34.746;138.604;2023-06-05T14:57:54;4;3;
77777;PMS5003;66966;-34.746;138.604;2023-06-05T15:00:19;5;5;
77777;PMS5003;66966;-34.746;138.604;2023-06-05T15:02:45;6;5;
77777;PMS5003;66966;-34.746;138.604;2023-06-05T15:05:10;5;5;
77777;PMS5003;66966;-34.746;138.604;2023-06-05T15:07:36;6;5;
77777;PMS5003;66966;-34.746;138.604;2023-06-05T15:10:02;5;5;
77777;PMS5003;66966;-34.746;138.604;2023-06-05T15:12:27;4;4;
77777;PMS5003;66966;-34.746;138.604;2023-06-05T15:14:52;4;4;
77777;PMS5003;66966;-34.746;138.604;2023-06-05T15:17:18;4;4;
77777;PMS5003;66966;-34.746;138.604;2023-06-05T15:19:44;4;3;
77777;PMS5003;66966;-34.746;138.604;2023-06-05T15:22:09;6;6;
77777;PMS5003;66966;-34.746;138.604;2023-06-05T15:24:35;5;5;
77777;PMS5003;66966;-34.746;138.604;2023-06-05T15:27:00;4;4;
77777;PMS5003;66966;-34.746;138.604;2023-06-05T15:29:26;4;3;
77777;PMS5003;66966;-34.746;138.604;2023-06-05T15:31:51;5;5;
77777;PMS5003;66966;-34.746;138.604;2023-06-05T15:34:17;5;5;
77777;PMS5003;66966;-34.746;138.604;2023-06-05T15:36:43;4;4;
77777;PMS5003;66966;-34.746;138.604;2023-06-05T15:39:08;5;5;
77777;PMS5003;66966;-34.746;138.604;2023-06-05T15:41:34;4;4;
77777;PMS5003;66966;-34.746;138.604;2023-06-05T15:43:59;5;5;
77777;PMS5003;66966;-34.746;138.604;2023-06-05T15:46:25;4;4;
77777;PMS5003;66966;-34.746;138.604;2023-06-05T15:48:50;5;5;
77777;PMS5003;66966;-34.746;138.604;2023-06-05T15:51:16;5;5;
77777;PMS5003;66966;-34.746;138.604;2023-06-05T15:53:42;3;3;
77777;PMS5003;66966;-34.746;138.604;2023-06-05T15:56:07;5;5;
77777;PMS5003;66966;-34.746;138.604;2023-06-05T15:58:33;5;5;
77777;PMS5003;66966;-34.746;138.604;2023-06-05T16:00:58;4;4;
77777;PMS5003;66966;-34.746;138.604;2023-06-05T16:03:24;5;5;
77777;PMS5003;66966;-34.746;138.604;2023-06-05T16:05:49;5;5;
77777;PMS5003;66966;-34.746;138.604;2023-06-05T16:08:15;4;4;
77777;PMS5003;66966;-34.746;138.604;2023-06-05T16:10:41;5;5;
77777;PMS5003;66966;-34.746;138.604;2023-06-05T16:13:06;4;4;